createdAt,value
2023-04-13T00:01:58.235Z,55.91
2023-04-13T00:04:00.009Z,56.29
2023-04-13T00:06:03.406Z,56.38
2023-04-13T00:08:05.504Z,56.50
2023-04-13T00:10:10.711Z,56.40
2023-04-13T00:12:12.349Z,56.29
2023-04-13T00:14:13.898Z,56.60
2023-04-13T00:16:16.254Z,56.35
2023-04-13T00:18:17.968Z,56.60
2023-04-13T00:20:20.120Z,56.54
2023-04-13T00:22:23.128Z,56.67
2023-04-13T00:24:24.702Z,56.50
2023-04-13T00:26:26.250Z,56.67
2023-04-13T00:28:27.836Z,56.55
2023-04-13T00:30:30.048Z,56.59
2023-04-13T00:32:31.592Z,56.41
2023-04-13T00:34:33.219Z,56.43
2023-04-13T00:36:34.717Z,56.12
2023-04-13T00:38:37.673Z,55.75
2023-04-13T00:40:39.251Z,55.86
2023-04-13T00:42:43.148Z,55.74
2023-04-13T00:44:44.809Z,55.71
2023-04-13T00:46:47.964Z,55.65
2023-04-13T00:48:49.659Z,55.93
2023-04-13T00:50:51.290Z,56.06
2023-04-13T00:52:52.885Z,56.03
2023-04-13T00:54:57.579Z,56.07
2023-04-13T00:56:59.571Z,56.21
2023-04-13T00:59:01.212Z,56.29
2023-04-13T01:01:02.961Z,56.25
2023-04-13T01:03:04.790Z,56.53
2023-04-13T01:05:06.882Z,56.74
2023-04-13T01:07:16.598Z,56.64
2023-04-13T01:09:25.622Z,56.71
2023-04-13T01:11:35.531Z,57.16
2023-04-13T01:13:42.449Z,56.55
2023-04-13T01:15:49.850Z,56.50
2023-04-13T01:17:54.869Z,56.69
2023-04-13T01:20:00.060Z,56.40
2023-04-13T01:22:04.053Z,56.42
2023-04-13T01:24:13.844Z,56.20
2023-04-13T01:26:15.582Z,56.17
2023-04-13T01:28:19.302Z,56.34
2023-04-13T01:30:25.713Z,56.41
2023-04-13T01:32:28.225Z,55.84
2023-04-13T01:34:30.404Z,56.15
2023-04-13T01:36:32.183Z,55.91
2023-04-13T01:38:33.725Z,56.02
2023-04-13T01:40:36.538Z,55.94
2023-04-13T01:42:38.541Z,55.72
2023-04-13T01:44:41.693Z,55.72
2023-04-13T01:46:47.621Z,55.83
2023-04-13T01:48:53.701Z,55.85
2023-04-13T01:50:58.422Z,55.69
2023-04-13T01:53:06.752Z,55.57
2023-04-13T01:55:10.005Z,55.51
2023-04-13T01:57:13.091Z,55.31
2023-04-13T01:59:15.263Z,55.14
2023-04-13T02:01:18.256Z,54.68
2023-04-13T02:03:19.930Z,54.61
2023-04-13T02:05:21.769Z,54.46
2023-04-13T02:07:23.326Z,54.28
2023-04-13T02:09:25.030Z,54.05
2023-04-13T02:11:27.650Z,53.98
2023-04-13T02:13:29.258Z,53.85
2023-04-13T02:15:33.936Z,53.81
2023-04-13T02:17:36.901Z,54.36
2023-04-13T02:19:38.495Z,54.22
2023-04-13T02:21:40.071Z,53.82
2023-04-13T02:23:41.766Z,53.62
2023-04-13T02:25:45.988Z,53.77
2023-04-13T02:27:48.852Z,53.66
2023-04-13T02:29:50.700Z,53.95
2023-04-13T02:31:52.448Z,54.13
2023-04-13T02:33:55.342Z,53.78
2023-04-13T02:35:57.023Z,53.67
2023-04-13T02:37:58.572Z,53.68
2023-04-13T02:40:00.210Z,53.56
2023-04-13T02:42:01.835Z,53.34
2023-04-13T02:44:03.394Z,53.16
2023-04-13T02:46:05.447Z,53.14
2023-04-13T02:48:07.757Z,53.31
2023-04-13T02:50:11.720Z,53.25
2023-04-13T02:52:13.372Z,53.30
2023-04-13T02:54:14.960Z,53.36
2023-04-13T02:56:16.554Z,53.51
2023-04-13T02:58:21.107Z,53.18
2023-04-13T03:00:22.850Z,53.52
2023-04-13T03:02:24.527Z,53.67
2023-04-13T03:04:26.219Z,53.49
2023-04-13T03:06:29.186Z,53.27
2023-04-13T03:08:30.764Z,53.22
2023-04-13T03:10:32.367Z,53.74
2023-04-13T03:12:34.162Z,53.60
2023-04-13T03:14:36.392Z,54.17
2023-04-13T03:16:37.979Z,54.07
2023-04-13T03:18:39.580Z,54.51
2023-04-13T03:20:41.343Z,54.29
2023-04-13T03:22:44.349Z,53.82
2023-04-13T03:24:46.147Z,53.60
2023-04-13T03:26:47.770Z,53.51
2023-04-13T03:28:49.390Z,53.65
2023-04-13T03:30:50.999Z,53.58
2023-04-13T03:32:52.738Z,53.54
2023-04-13T03:34:54.421Z,53.82
2023-04-13T03:36:55.943Z,53.99
2023-04-13T03:38:58.926Z,53.53
2023-04-13T03:41:00.760Z,53.65
2023-04-13T03:43:02.299Z,53.65
2023-04-13T03:45:04.318Z,53.74
2023-04-13T03:47:05.965Z,53.38
2023-04-13T03:49:09.236Z,53.19
2023-04-13T03:51:10.835Z,53.24
2023-04-13T03:53:12.429Z,53.70
2023-04-13T03:55:15.669Z,54.38
2023-04-13T03:57:17.310Z,54.23
2023-04-13T03:59:18.888Z,54.51
2023-04-13T04:01:20.637Z,54.43
2023-04-13T04:03:22.658Z,54.47
2023-04-13T04:05:24.812Z,54.45
2023-04-13T04:07:26.518Z,54.56
2023-04-13T04:09:28.091Z,54.85
2023-04-13T04:11:31.177Z,54.12
2023-04-13T04:13:32.758Z,54.44
2023-04-13T04:15:34.305Z,54.53
2023-04-13T04:17:37.371Z,53.96
2023-04-13T04:19:40.299Z,53.83
2023-04-13T04:21:42.039Z,54.03
2023-04-13T04:23:43.610Z,53.65
2023-04-13T04:25:45.165Z,53.58
2023-04-13T04:27:48.131Z,53.82
2023-04-13T04:29:50.731Z,53.63
2023-04-13T04:31:52.321Z,53.83
2023-04-13T04:33:53.822Z,53.53
2023-04-13T04:35:55.559Z,53.47
2023-04-13T04:37:57.124Z,53.42
2023-04-13T04:39:58.652Z,53.67
2023-04-13T04:42:00.271Z,53.26
2023-04-13T04:44:03.518Z,53.11
2023-04-13T04:46:05.550Z,52.98
2023-04-13T04:48:07.569Z,52.83
2023-04-13T04:50:10.064Z,53.00
2023-04-13T04:52:11.626Z,53.03
2023-04-13T04:54:13.223Z,52.29
2023-04-13T04:56:14.782Z,52.26
2023-04-13T04:58:16.600Z,52.70
2023-04-13T05:00:20.543Z,52.62
2023-04-13T05:02:23.432Z,52.89
2023-04-13T05:04:25.135Z,52.54
2023-04-13T05:06:26.710Z,52.93
2023-04-13T05:08:28.308Z,52.43
2023-04-13T05:10:29.960Z,52.02
2023-04-13T05:12:37.215Z,52.45
2023-04-13T05:14:39.105Z,52.71
2023-04-13T05:16:44.872Z,52.92
2023-04-13T05:18:47.826Z,53.01
2023-04-13T05:20:49.414Z,52.98
2023-04-13T05:22:51.091Z,53.22
2023-04-13T05:24:52.732Z,52.88
2023-04-13T05:26:55.353Z,53.04
2023-04-13T05:28:57.170Z,53.43
2023-04-13T05:31:00.727Z,53.29
2023-04-13T05:33:03.860Z,52.67
2023-04-13T05:35:06.688Z,52.75
2023-04-13T05:37:08.277Z,53.11
2023-04-13T05:39:09.896Z,53.14
2023-04-13T05:41:11.862Z,53.06
2023-04-13T05:43:13.536Z,53.56
2023-04-13T05:45:15.052Z,53.35
2023-04-13T05:47:18.223Z,52.35
2023-04-13T05:49:21.217Z,52.76
2023-04-13T05:51:22.884Z,52.57
2023-04-13T05:53:24.539Z,51.92
2023-04-13T05:55:27.021Z,52.12
2023-04-13T05:57:28.937Z,52.29
2023-04-13T05:59:30.632Z,52.17
2023-04-13T06:01:34.546Z,52.69
2023-04-13T06:03:36.295Z,52.24
2023-04-13T06:05:42.492Z,52.49
2023-04-13T06:07:44.335Z,52.52
2023-04-13T06:09:45.880Z,51.86
2023-04-13T06:11:47.450Z,52.12
2023-04-13T06:13:49.209Z,53.17
2023-04-13T06:15:50.739Z,53.08
2023-04-13T06:17:52.396Z,52.60
2023-04-13T06:19:54.166Z,52.15
2023-04-13T06:21:57.112Z,52.36
2023-04-13T06:23:58.670Z,52.89
2023-04-13T06:26:00.504Z,52.90
2023-04-13T06:28:02.430Z,52.65
2023-04-13T06:30:04.957Z,52.88
2023-04-13T06:32:06.577Z,53.61
2023-04-13T06:34:08.396Z,52.77
2023-04-13T06:36:10.499Z,53.85
2023-04-13T06:38:13.565Z,53.07
2023-04-13T06:40:15.590Z,52.97
2023-04-13T06:42:18.468Z,52.59
2023-04-13T06:44:20.365Z,52.77
2023-04-13T06:46:22.530Z,52.48
2023-04-13T06:48:24.248Z,52.88
2023-04-13T06:50:26.003Z,53.70
2023-04-13T06:52:29.598Z,53.71
2023-04-13T06:54:32.593Z,54.37
2023-04-13T06:56:34.365Z,53.58
2023-04-13T06:58:35.915Z,54.22
2023-04-13T07:00:37.567Z,54.45
2023-04-13T07:02:39.434Z,53.28
2023-04-13T07:04:41.506Z,53.73
2023-04-13T07:06:43.427Z,53.88
2023-04-13T07:08:45.257Z,54.04
2023-04-13T07:10:52.704Z,54.21
2023-04-13T07:12:54.339Z,54.20
2023-04-13T07:14:56.036Z,53.75
2023-04-13T07:16:57.715Z,54.79
2023-04-13T07:18:59.537Z,55.00
2023-04-13T07:21:01.374Z,54.98
2023-04-13T07:23:06.602Z,53.79
2023-04-13T07:25:08.937Z,54.89
2023-04-13T07:27:12.087Z,54.65
2023-04-13T07:29:15.806Z,54.66
2023-04-13T07:31:17.467Z,55.03
2023-04-13T07:33:19.233Z,56.01
2023-04-13T07:35:21.055Z,56.43
2023-04-13T07:37:22.817Z,55.60
2023-04-13T07:39:24.628Z,55.12
2023-04-13T07:41:26.224Z,55.68
2023-04-13T07:43:29.264Z,55.67
2023-04-13T07:45:31.167Z,56.32
2023-04-13T07:47:32.892Z,56.53
2023-04-13T07:49:36.800Z,56.84
2023-04-13T07:51:38.457Z,56.68
2023-04-13T07:53:40.056Z,56.94
2023-04-13T07:55:41.700Z,56.85
2023-04-13T07:57:43.564Z,56.83
2023-04-13T07:59:46.549Z,56.74
2023-04-13T08:01:48.271Z,56.83
2023-04-13T08:03:50.193Z,56.12
2023-04-13T08:05:51.883Z,56.61
2023-04-13T08:07:53.489Z,57.17
2023-04-13T08:09:55.203Z,56.52
2023-04-13T08:11:56.855Z,56.75
2023-04-13T08:13:58.491Z,56.94
2023-04-13T08:16:01.772Z,57.32
2023-04-13T08:18:03.888Z,56.18
2023-04-13T08:20:06.867Z,56.62
2023-04-13T08:22:09.901Z,55.09
2023-04-13T08:24:11.524Z,55.46
2023-04-13T08:26:17.395Z,56.02
2023-04-13T08:28:19.056Z,55.95
2023-04-13T08:30:20.701Z,55.90
2023-04-13T08:32:23.858Z,55.17
2023-04-13T08:34:25.824Z,54.17
2023-04-13T08:36:27.635Z,55.01
2023-04-13T08:38:29.289Z,54.92
2023-04-13T08:40:32.097Z,53.72
2023-04-13T08:42:34.483Z,54.83
2023-04-13T08:44:38.948Z,54.27
2023-04-13T08:46:41.707Z,54.04
2023-04-13T08:48:52.713Z,53.12
2023-04-13T08:50:56.453Z,54.24
2023-04-13T08:53:00.179Z,54.28
2023-04-13T08:55:02.615Z,55.02
2023-04-13T08:57:04.768Z,52.09
2023-04-13T08:59:06.691Z,52.81
2023-04-13T09:01:08.810Z,52.63
2023-04-13T09:03:14.386Z,52.93
2023-04-13T09:05:18.363Z,52.92
2023-04-13T09:07:23.673Z,52.86
2023-04-13T09:09:26.950Z,52.93
2023-04-13T09:11:29.837Z,52.88
2023-04-13T09:13:31.702Z,53.55
2023-04-13T09:15:34.020Z,53.08
2023-04-13T09:17:36.220Z,52.52
2023-04-13T09:19:38.201Z,53.22
2023-04-13T09:21:43.034Z,52.76
2023-04-13T09:23:53.453Z,53.09
2023-04-13T09:26:08.735Z,53.72
2023-04-13T09:28:16.456Z,52.43
2023-04-13T09:30:20.459Z,53.44
2023-04-13T09:32:23.268Z,53.47
2023-04-13T09:34:29.498Z,53.43
2023-04-13T09:36:31.322Z,53.17
2023-04-13T09:38:35.239Z,53.16
2023-04-13T09:40:47.361Z,52.48
2023-04-13T09:42:57.736Z,53.32
2023-04-13T09:44:59.791Z,52.72
2023-04-13T09:47:03.190Z,52.90
2023-04-13T09:49:05.277Z,52.31
2023-04-13T09:51:08.204Z,52.85
2023-04-13T09:53:10.367Z,52.66
2023-04-13T09:55:16.559Z,53.82
2023-04-13T09:57:25.370Z,52.38
2023-04-13T09:59:28.139Z,51.97
2023-04-13T10:01:30.190Z,52.49
2023-04-13T10:03:34.569Z,52.56
2023-04-13T10:05:47.386Z,51.88
2023-04-13T10:07:57.922Z,52.41
2023-04-13T10:09:59.630Z,51.44
2023-04-13T10:12:04.542Z,52.21
2023-04-13T10:14:11.821Z,52.16
2023-04-13T10:16:43.115Z,51.65
2023-04-13T10:18:54.373Z,52.58
2023-04-13T10:20:59.209Z,50.85
2023-04-13T10:23:02.957Z,51.64
2023-04-13T10:25:05.953Z,52.36
2023-04-13T10:27:14.576Z,50.79
2023-04-13T10:29:30.413Z,51.56
2023-04-13T10:31:36.740Z,51.03
2023-04-13T10:33:47.867Z,50.12
2023-04-13T10:35:56.962Z,50.41
2023-04-13T10:37:58.733Z,50.96
2023-04-13T10:40:05.305Z,50.41
2023-04-13T10:42:08.177Z,50.63
2023-04-13T10:44:11.203Z,51.37
2023-04-13T10:46:12.977Z,50.59
2023-04-13T10:48:19.512Z,51.45
2023-04-13T10:50:22.906Z,50.54
2023-04-13T10:52:24.932Z,49.98
2023-04-13T10:54:26.992Z,50.35
2023-04-13T10:56:30.351Z,50.13
2023-04-13T10:58:32.760Z,51.33
2023-04-13T11:00:44.626Z,50.32
2023-04-13T11:02:49.232Z,50.02
2023-04-13T11:04:51.516Z,50.55
2023-04-13T11:06:53.499Z,50.18
2023-04-13T11:09:01.366Z,50.45
2023-04-13T11:11:03.008Z,49.92
2023-04-13T11:13:04.601Z,50.17
2023-04-13T11:15:08.302Z,49.52
2023-04-13T11:17:15.035Z,50.03
2023-04-13T11:19:17.155Z,49.35
2023-04-13T11:21:18.845Z,50.24
2023-04-13T11:23:21.146Z,50.08
2023-04-13T11:25:22.986Z,49.57
2023-04-13T11:27:25.019Z,49.70
2023-04-13T11:29:26.770Z,49.71
2023-04-13T11:31:37.873Z,49.40
2023-04-13T11:33:41.133Z,48.92
2023-04-13T11:35:49.804Z,49.63
2023-04-13T11:37:53.513Z,51.15
2023-04-13T11:39:55.161Z,49.88
2023-04-13T11:41:56.835Z,49.88
2023-04-13T11:44:00.816Z,49.83
2023-04-13T11:46:02.470Z,49.03
2023-04-13T11:48:04.702Z,50.01
2023-04-13T11:50:08.917Z,50.06
2023-04-13T11:52:10.530Z,50.25
2023-04-13T11:54:12.667Z,49.28
2023-04-13T11:56:14.258Z,49.28
2023-04-13T11:58:17.212Z,49.71
2023-04-13T12:00:22.735Z,50.82
2023-04-13T12:02:29.495Z,50.86
2023-04-13T12:04:37.428Z,49.63
2023-04-13T12:06:42.325Z,49.79
2023-04-13T12:08:51.619Z,49.49
2023-04-13T12:11:24.508Z,49.38
2023-04-13T12:13:35.514Z,49.35
2023-04-13T12:15:44.592Z,48.67
2023-04-13T12:17:58.162Z,49.83
2023-04-13T12:20:07.115Z,49.02
2023-04-13T12:22:12.135Z,49.61
2023-04-13T12:24:15.443Z,48.37
2023-04-13T12:26:49.861Z,49.65
2023-04-13T12:28:39.070Z,47.94
2023-04-13T12:30:40.673Z,48.59
2023-04-13T12:32:43.926Z,50.31
2023-04-13T12:34:45.585Z,48.76
2023-04-13T12:36:47.234Z,48.79
2023-04-13T12:38:50.326Z,48.53
2023-04-13T12:40:55.622Z,48.91
2023-04-13T12:42:57.218Z,48.36
2023-04-13T12:44:58.831Z,48.90
2023-04-13T12:47:00.478Z,47.78
2023-04-13T12:49:02.491Z,46.09
2023-04-13T12:51:05.372Z,48.57
2023-04-13T12:53:07.043Z,48.15
2023-04-13T12:55:10.716Z,47.29
2023-04-13T12:57:12.788Z,47.71
2023-04-13T12:59:14.463Z,47.44
2023-04-13T13:01:16.081Z,47.55
2023-04-13T13:03:18.054Z,47.34
2023-04-13T13:05:19.681Z,47.69
2023-04-13T13:07:21.333Z,46.22
2023-04-13T13:09:23.123Z,46.69
2023-04-13T13:11:26.664Z,46.17
2023-04-13T13:13:28.522Z,46.69
2023-04-13T13:15:30.341Z,47.02
2023-04-13T13:17:31.931Z,46.88
2023-04-13T13:19:33.779Z,46.15
2023-04-13T13:21:35.569Z,46.33
2023-04-13T13:23:37.168Z,47.69
2023-04-13T13:25:40.976Z,53.50
2023-04-13T13:29:51.899Z,55.86
2023-04-13T13:31:53.556Z,55.51
2023-04-13T13:33:55.205Z,55.37
2023-04-13T13:35:56.812Z,56.77
2023-04-13T13:37:58.466Z,57.23
2023-04-13T13:40:00.137Z,57.29
2023-04-13T13:42:01.773Z,55.25
2023-04-13T13:44:04.732Z,54.74
2023-04-13T13:46:06.603Z,55.71
2023-04-13T13:48:08.367Z,55.38
2023-04-13T13:50:10.860Z,55.50
2023-04-13T13:52:12.686Z,52.18
2023-04-13T13:54:14.297Z,51.91
2023-04-13T13:56:15.948Z,56.09
2023-04-13T13:58:17.772Z,54.12
2023-04-13T14:00:21.465Z,52.23
2023-04-13T14:02:23.151Z,56.43
2023-04-13T14:04:25.102Z,54.39
2023-04-13T14:06:29.981Z,53.41
2023-04-13T14:08:31.636Z,56.25
2023-04-13T14:10:35.172Z,54.46
2023-04-13T14:12:38.623Z,55.00
2023-04-13T14:14:40.433Z,55.25
2023-04-13T14:16:43.473Z,56.45
2023-04-13T14:18:46.205Z,55.50
2023-04-13T14:20:49.885Z,56.69
2023-04-13T14:22:51.542Z,57.22
2023-04-13T14:24:53.397Z,56.97
2023-04-13T14:26:55.104Z,56.29
2023-04-13T14:28:56.906Z,56.27
2023-04-13T14:30:58.659Z,55.51
2023-04-13T14:33:01.741Z,56.17
2023-04-13T14:35:03.645Z,56.37
2023-04-13T14:37:05.190Z,54.87
2023-04-13T14:39:06.830Z,57.57
2023-04-13T14:41:08.964Z,57.07
2023-04-13T14:43:10.619Z,53.35
2023-04-13T14:45:16.491Z,57.53
2023-04-13T14:47:18.202Z,55.32
2023-04-13T14:49:21.166Z,58.21
2023-04-13T14:51:23.015Z,59.43
2023-04-13T14:53:24.789Z,55.63
2023-04-13T14:55:26.468Z,55.57
2023-04-13T14:57:28.544Z,55.14
2023-04-13T14:59:30.529Z,53.39
2023-04-13T15:01:32.426Z,53.60
2023-04-13T15:03:34.191Z,53.55
2023-04-13T15:05:38.565Z,54.62
2023-04-13T15:07:40.350Z,54.55
2023-04-13T15:09:42.085Z,55.37
2023-04-13T15:11:43.716Z,54.91
2023-04-13T15:13:45.398Z,55.19
2023-04-13T15:15:47.035Z,55.81
2023-04-13T15:17:48.850Z,56.15
2023-04-13T15:19:50.594Z,56.52
2023-04-13T15:21:53.607Z,54.03
2023-04-13T15:23:55.437Z,54.05
2023-04-13T15:25:57.084Z,54.21
2023-04-13T15:27:59.125Z,54.36
2023-04-13T15:30:00.970Z,53.89
2023-04-13T15:32:02.653Z,53.27
2023-04-13T15:34:04.772Z,53.79
2023-04-13T15:36:07.225Z,51.62
2023-04-13T15:38:10.216Z,52.59
2023-04-13T15:40:12.221Z,52.91
2023-04-13T15:42:14.046Z,51.96
2023-04-13T15:44:15.743Z,50.29
2023-04-13T15:46:17.716Z,50.07
2023-04-13T15:48:19.385Z,52.58
2023-04-13T15:50:21.076Z,53.72
2023-04-13T15:52:22.639Z,51.66
2023-04-13T15:54:25.850Z,51.79
2023-04-13T15:56:28.200Z,50.83
2023-04-13T15:58:30.420Z,50.95
2023-04-13T16:00:32.235Z,50.30
2023-04-13T16:02:34.163Z,49.90
2023-04-13T16:04:36.304Z,48.21
2023-04-13T16:06:38.078Z,50.28
2023-04-13T16:08:40.584Z,49.48
2023-04-13T16:10:43.856Z,50.28
2023-04-13T16:12:45.639Z,50.72
2023-04-13T16:14:47.775Z,51.68
2023-04-13T16:16:49.902Z,50.52
2023-04-13T16:18:52.155Z,51.04
2023-04-13T16:20:54.217Z,52.40
2023-04-13T16:22:55.983Z,53.22
2023-04-13T16:24:57.939Z,53.23
2023-04-13T16:27:01.466Z,52.60
2023-04-13T16:29:03.481Z,52.05
2023-04-13T16:31:09.109Z,53.78
2023-04-13T16:33:10.848Z,56.63
2023-04-13T16:35:12.990Z,56.63
2023-04-13T16:37:15.036Z,58.16
2023-04-13T16:39:16.846Z,59.58
2023-04-13T16:41:18.546Z,59.39
2023-04-13T16:43:21.675Z,58.92
2023-04-13T16:45:23.402Z,59.46
2023-04-13T16:47:25.484Z,58.61
2023-04-13T16:49:27.429Z,59.43
2023-04-13T16:51:29.620Z,58.45
2023-04-13T16:53:31.326Z,60.88
2023-04-13T16:55:32.989Z,60.82
2023-04-13T16:57:34.656Z,59.63
2023-04-13T16:59:37.826Z,58.69
2023-04-13T17:01:39.920Z,57.96
2023-04-13T17:03:41.734Z,56.58
2023-04-13T17:05:46.297Z,56.66
2023-04-13T17:07:49.937Z,54.86
2023-04-13T17:09:54.628Z,53.21
2023-04-13T17:12:21.698Z,51.05
2023-04-13T17:15:04.466Z,52.23
2023-04-13T17:17:42.066Z,50.64
2023-04-13T17:19:43.740Z,50.67
2023-04-13T17:22:03.591Z,50.85
2023-04-13T17:24:30.575Z,51.70
2023-04-13T17:31:42.217Z,51.07
2023-04-13T17:34:04.243Z,50.83
2023-04-13T17:36:14.638Z,52.84
2023-04-13T17:38:25.586Z,48.94
2023-04-13T17:40:30.815Z,49.78
2023-04-13T17:42:38.702Z,52.13
2023-04-13T17:44:52.893Z,52.48
2023-04-13T17:49:58.924Z,53.96
2023-04-13T17:52:18.688Z,54.18
2023-04-13T17:54:58.533Z,54.03
2023-04-13T17:57:06.966Z,54.65
2023-04-13T17:59:38.321Z,55.50
2023-04-13T18:02:08.415Z,54.96
2023-04-13T18:04:25.590Z,56.95
2023-04-13T18:06:38.450Z,57.46
2023-04-13T18:09:02.180Z,57.58
2023-04-13T18:11:06.328Z,59.48
2023-04-13T18:13:07.951Z,59.21
2023-04-13T18:15:16.212Z,59.79
2023-04-13T18:17:24.978Z,60.94
2023-04-13T18:19:31.427Z,61.32
2023-04-13T18:21:36.283Z,60.06
2023-04-13T18:23:37.874Z,61.32
2023-04-13T18:25:57.480Z,59.11
2023-04-13T18:27:59.354Z,58.41
2023-04-13T18:30:37.008Z,56.85
2023-04-13T18:32:53.743Z,56.49
2023-04-13T18:34:56.779Z,56.74
2023-04-13T18:36:58.565Z,56.54
2023-04-13T18:39:43.881Z,56.04
2023-04-13T18:41:54.328Z,56.51
2023-04-13T18:43:55.894Z,56.79
2023-04-13T18:46:19.008Z,56.84
2023-04-13T18:48:32.947Z,57.46
2023-04-13T18:50:38.800Z,57.12
2023-04-13T18:52:43.301Z,57.11
2023-04-13T18:55:02.674Z,57.34
2023-04-13T18:57:06.326Z,56.78
2023-04-13T18:59:19.941Z,56.81
2023-04-13T19:01:21.745Z,56.72
2023-04-13T19:03:23.598Z,56.51
2023-04-13T19:08:14.276Z,58.01
2023-04-13T19:10:17.326Z,58.80
2023-04-13T19:12:21.879Z,59.21
2023-04-13T19:14:46.041Z,59.82
2023-04-13T19:17:17.207Z,59.66
2023-04-13T19:19:21.975Z,59.79
2023-04-13T19:21:28.263Z,60.04
2023-04-13T19:23:33.010Z,60.01
2023-04-13T19:25:52.382Z,59.93
2023-04-13T19:27:55.253Z,59.71
2023-04-13T19:29:56.899Z,60.11
2023-04-13T19:31:58.632Z,59.78
2023-04-13T19:34:04.183Z,60.04
2023-04-13T19:36:11.730Z,60.39
2023-04-13T19:38:24.040Z,60.45
2023-04-13T19:40:38.010Z,61.57
2023-04-13T19:42:55.672Z,59.81
2023-04-13T19:45:16.347Z,61.00
2023-04-13T19:47:49.405Z,59.71
2023-04-13T19:49:57.176Z,60.49
2023-04-13T19:51:58.724Z,60.32
2023-04-13T19:54:05.111Z,60.92
2023-04-13T19:56:31.413Z,61.96
2023-04-13T19:58:57.256Z,61.91
2023-04-13T20:00:59.186Z,62.44
2023-04-13T20:03:06.422Z,61.19
2023-04-13T20:05:14.384Z,60.41
2023-04-13T20:07:25.151Z,61.12
2023-04-13T20:10:14.590Z,60.30
2023-04-13T20:12:27.465Z,61.10
2023-04-13T20:14:46.740Z,61.25
2023-04-13T20:16:48.491Z,60.94
2023-04-13T20:18:52.953Z,61.11
2023-04-13T20:20:57.823Z,60.63
2023-04-13T20:22:59.595Z,60.80
2023-04-13T20:25:23.434Z,60.85
2023-04-13T20:27:42.701Z,61.02
2023-04-13T20:29:55.991Z,60.71
2023-04-13T20:32:00.281Z,59.03
2023-04-13T20:34:02.511Z,59.58
2023-04-13T20:36:04.881Z,59.84
2023-04-13T20:38:07.799Z,58.44
2023-04-13T20:40:26.600Z,59.35
2023-04-13T20:42:32.858Z,59.54
2023-04-13T20:44:58.804Z,60.01
2023-04-13T20:47:25.629Z,60.46
2023-04-13T20:49:27.465Z,60.99
2023-04-13T20:51:37.320Z,60.55
2023-04-13T20:53:42.740Z,60.16
2023-04-13T20:55:48.245Z,60.34
2023-04-13T20:57:50.352Z,60.27
2023-04-13T21:00:04.748Z,59.89
2023-04-13T21:02:21.213Z,59.81
2023-04-13T21:04:41.402Z,59.73
2023-04-13T21:07:00.619Z,60.22
2023-04-13T21:09:14.352Z,60.90
2023-04-13T21:12:13.803Z,60.54
2023-04-13T21:14:53.622Z,60.86
2023-04-13T21:17:04.200Z,60.87
2023-04-13T21:19:08.577Z,60.92
2023-04-13T21:21:39.883Z,61.37
2023-04-13T21:23:41.553Z,60.42
2023-04-13T21:25:57.600Z,61.20
2023-04-13T21:28:30.282Z,61.17
2023-04-13T21:33:47.223Z,61.43
2023-04-13T21:36:51.484Z,61.82
2023-04-13T21:38:28.388Z,61.20
2023-04-13T21:41:35.179Z,61.76
2023-04-13T21:43:42.522Z,61.12
2023-04-13T21:45:46.956Z,61.11
2023-04-13T21:48:00.675Z,60.75
2023-04-13T21:50:17.646Z,60.23
2023-04-13T21:52:25.205Z,59.65
2023-04-13T21:56:54.495Z,60.20
2023-04-13T21:59:02.349Z,60.30
2023-04-13T22:01:21.290Z,61.07
2023-04-13T22:06:13.046Z,58.27
2023-04-13T22:08:17.554Z,57.71
2023-04-13T22:10:19.310Z,57.78
2023-04-13T22:14:45.977Z,58.57
2023-04-13T22:16:53.408Z,58.73
2023-04-13T22:19:25.605Z,59.37
2023-04-13T22:22:04.214Z,59.39
2023-04-13T22:27:01.503Z,57.27
2023-04-13T22:29:05.884Z,58.72
2023-04-13T22:31:41.702Z,58.25
2023-04-13T22:36:49.389Z,57.22
2023-04-13T22:39:02.535Z,59.00
2023-04-13T22:41:18.979Z,59.28
2023-04-13T22:43:23.708Z,58.49
2023-04-13T22:45:25.244Z,58.75
2023-04-13T22:47:29.696Z,59.77
2023-04-13T22:49:34.111Z,58.76
2023-04-13T22:51:44.956Z,58.88
2023-04-13T22:53:50.558Z,58.69
2023-04-13T22:55:55.875Z,59.57
2023-04-13T22:57:57.476Z,59.38
2023-04-13T23:00:33.017Z,58.69
2023-04-13T23:02:44.203Z,58.75
2023-04-13T23:05:47.644Z,59.03
2023-04-13T23:07:44.843Z,59.78
2023-04-13T23:09:58.876Z,59.54
2023-04-13T23:12:21.934Z,58.53
2023-04-13T23:14:35.844Z,57.46
2023-04-13T23:16:49.689Z,57.63
2023-04-13T23:18:51.703Z,57.52
2023-04-13T23:21:15.057Z,58.08
2023-04-13T23:23:16.669Z,58.61
2023-04-13T23:25:21.227Z,59.20
2023-04-13T23:27:33.354Z,59.59
2023-04-13T23:30:12.061Z,58.99
2023-04-13T23:32:26.139Z,59.33
2023-04-13T23:34:33.097Z,58.49
2023-04-13T23:36:45.721Z,58.48
2023-04-13T23:38:53.002Z,58.89
2023-04-13T23:40:58.193Z,59.70
2023-04-13T23:43:18.735Z,58.83
2023-04-13T23:45:26.361Z,58.52
2023-04-13T23:47:34.481Z,58.27
2023-04-13T23:49:42.182Z,58.15
2023-04-13T23:52:04.217Z,58.35
2023-04-13T23:54:09.291Z,58.27
2023-04-13T23:56:10.875Z,58.28
2023-04-13T23:58:12.484Z,58.02
